Time;durP1;ratioP1;P1;durP2;ratioP2;P2;SDS_P1;SDS_P2;PMS_P1;PMS_P2;Temp;Humidity;BMP_temperature;BMP_pressure;BME280_temperature;BME280_humidity;BME280_pressure;Samples;Min_cycle;Max_cycle;Signal;HPM_P1;HPM_P2
2023/08/07 00:01:37;;;;;;;3.37;0.97;;;13.00;99.90;;;;;;5044508;28;20448;-82
2023/08/07 00:04:04;;;;;;;4.43;1.23;;;13.00;99.90;;;;;;5043745;28;20563;-81
2023/08/07 00:06:31;;;;;;;1.17;1.03;;;13.00;99.90;;;;;;5043177;28;20459;-81
2023/08/07 00:08:58;;;;;;;0.50;0.40;;;13.00;99.90;;;;;;5043948;28;20440;-81
2023/08/07 00:11:25;;;;;;;0.60;0.60;;;13.00;99.90;;;;;;5045810;28;20443;-81
2023/08/07 00:13:53;;;;;;;0.50;0.40;;;13.00;99.90;;;;;;5046822;28;20446;-80
2023/08/07 00:16:19;;;;;;;1.27;1.17;;;13.00;99.90;;;;;;5043721;28;20486;-80
2023/08/07 00:18:46;;;;;;;0.87;0.87;;;13.00;99.90;;;;;;5043328;28;20440;-82
2023/08/07 00:21:13;;;;;;;1.00;0.87;;;13.00;99.90;;;;;;5043751;28;20498;-82
2023/08/07 00:23:40;;;;;;;0.50;0.40;;;13.10;99.90;;;;;;5046258;28;20447;-81
2023/08/07 00:26:07;;;;;;;2.10;2.00;;;13.10;99.90;;;;;;5046294;28;20534;-81
2023/08/07 00:28:33;;;;;;;0.50;0.40;;;13.00;99.90;;;;;;5042969;28;20448;-80
2023/08/07 00:31:01;;;;;;;0.50;0.40;;;13.00;99.90;;;;;;5043122;28;20443;-81
2023/08/07 00:33:28;;;;;;;1.10;0.83;;;13.00;99.90;;;;;;5043227;28;20870;-82
2023/08/07 00:35:55;;;;;;;0.50;0.40;;;13.00;99.90;;;;;;5042617;28;20469;-81
2023/08/07 00:38:22;;;;;;;1.50;1.10;;;13.00;99.90;;;;;;5044637;28;20449;-81
2023/08/07 00:40:48;;;;;;;0.50;0.40;;;13.00;99.90;;;;;;5045953;28;20446;-81
2023/08/07 00:43:15;;;;;;;0.50;0.40;;;13.00;99.90;;;;;;5044042;28;20447;-81
2023/08/07 00:45:45;;;;;;;0.50;0.40;;;13.00;99.90;;;;;;5042608;28;20965;-81
2023/08/07 00:48:15;;;;;;;3.43;1.40;;;13.00;99.90;;;;;;5042446;28;20431;-81
2023/08/07 00:50:43;;;;;;;0.50;0.40;;;13.00;99.90;;;;;;5047328;28;20970;-81
2023/08/07 00:53:10;;;;;;;0.50;0.40;;;12.90;99.90;;;;;;5045708;28;20442;-81
2023/08/07 00:55:37;;;;;;;0.50;0.40;;;12.90;99.90;;;;;;5045539;28;20514;-81
2023/08/07 00:58:04;;;;;;;0.70;0.70;;;12.90;99.90;;;;;;5045481;28;20483;-81
2023/08/07 01:00:31;;;;;;;0.47;0.40;;;13.00;99.90;;;;;;5042402;28;20930;-81
2023/08/07 01:02:58;;;;;;;0.50;0.40;;;13.00;99.90;;;;;;5042388;28;20445;-81
2023/08/07 01:05:27;;;;;;;0.50;0.40;;;12.90;99.90;;;;;;5044032;28;20832;-81
2023/08/07 01:07:55;;;;;;;0.50;0.40;;;12.90;99.90;;;;;;5045400;28;20446;-81
2023/08/07 01:10:27;;;;;;;0.80;0.50;;;12.90;99.90;;;;;;5043141;28;20440;-82
2023/08/07 01:13:03;;;;;;;0.93;0.93;;;12.90;99.90;;;;;;5042119;28;20451;-81
2023/08/07 01:15:34;;;;;;;0.50;0.40;;;12.90;99.90;;;;;;5044254;28;20460;-81
2023/08/07 01:18:01;;;;;;;0.50;0.40;;;12.90;99.90;;;;;;5045331;28;20999;-81
2023/08/07 01:20:29;;;;;;;0.50;0.40;;;12.90;99.90;;;;;;5042587;28;20435;-80
2023/08/07 01:22:57;;;;;;;1.20;0.50;;;12.90;99.90;;;;;;5041639;28;20437;-80
2023/08/07 01:25:24;;;;;;;2.10;2.00;;;12.90;99.90;;;;;;5043071;28;20961;-81
2023/08/07 01:28:00;;;;;;;0.50;0.50;;;12.90;99.90;;;;;;5047954;28;20980;-81
2023/08/07 01:30:31;;;;;;;0.50;0.40;;;12.90;99.90;;;;;;5043570;28;20444;-81
2023/08/07 01:33:05;;;;;;;0.70;0.60;;;12.90;99.90;;;;;;5046879;28;20937;-81
2023/08/07 01:35:36;;;;;;;0.57;0.57;;;12.90;99.90;;;;;;5043753;28;20447;-81
2023/08/07 01:38:06;;;;;;;0.50;0.50;;;12.90;99.90;;;;;;5044851;28;20484;-82
2023/08/07 01:40:33;;;;;;;0.80;0.70;;;12.90;99.90;;;;;;5041927;28;20452;-81
2023/08/07 01:43:00;;;;;;;0.87;0.87;;;12.80;99.90;;;;;;5041749;28;20554;-80
2023/08/07 01:45:28;;;;;;;0.83;0.73;;;12.80;99.90;;;;;;5041074;28;20453;-81
2023/08/07 01:47:55;;;;;;;0.50;0.43;;;12.80;99.90;;;;;;5041625;28;20440;-81
2023/08/07 01:50:23;;;;;;;0.50;0.40;;;12.80;99.90;;;;;;5042163;28;20447;-81
2023/08/07 01:52:49;;;;;;;0.70;0.70;;;12.80;99.90;;;;;;5044652;28;20444;-81
2023/08/07 01:55:20;;;;;;;0.50;0.30;;;12.80;99.90;;;;;;5043489;28;20951;-81
2023/08/07 01:57:47;;;;;;;0.50;0.40;;;12.80;99.90;;;;;;5041124;28;20481;-81
2023/08/07 02:00:14;;;;;;;0.50;0.40;;;12.80;99.90;;;;;;5040591;28;20441;-81
2023/08/07 02:02:40;;;;;;;0.50;0.40;;;12.80;99.90;;;;;;5041141;28;20447;-81
2023/08/07 02:05:08;;;;;;;0.50;0.40;;;12.80;99.90;;;;;;5040938;28;20444;-82
2023/08/07 02:07:34;;;;;;;0.50;0.40;;;12.80;99.90;;;;;;5043741;28;20975;-80
2023/08/07 02:10:01;;;;;;;0.50;0.40;;;12.80;99.90;;;;;;5044165;28;20932;-80
2023/08/07 02:12:32;;;;;;;0.50;0.40;;;12.80;99.90;;;;;;5042077;28;20439;-81
2023/08/07 02:14:59;;;;;;;0.50;0.40;;;12.80;99.90;;;;;;5040071;28;20449;-81
2023/08/07 02:17:26;;;;;;;1.83;1.73;;;12.80;99.90;;;;;;5041939;28;20480;-82
2023/08/07 02:19:53;;;;;;;0.50;0.40;;;12.80;99.90;;;;;;5044920;28;20963;-82
2023/08/07 02:22:20;;;;;;;0.50;0.50;;;12.80;99.90;;;;;;5043362;28;20831;-81
2023/08/07 02:24:47;;;;;;;0.50;0.40;;;12.80;99.90;;;;;;5040397;28;20444;-80
2023/08/07 02:27:13;;;;;;;0.50;0.40;;;12.80;99.90;;;;;;5040503;28;20475;-81
2023/08/07 02:29:42;;;;;;;0.50;0.40;;;12.80;99.90;;;;;;5043668;28;20447;-81
2023/08/07 02:32:08;;;;;;;0.50;0.40;;;12.80;99.90;;;;;;5043914;28;20453;-81
2023/08/07 02:34:35;;;;;;;0.50;0.40;;;12.80;99.90;;;;;;5042221;28;20473;-81
2023/08/07 02:37:02;;;;;;;3.27;0.77;;;12.80;99.90;;;;;;5040225;28;20523;-82
2023/08/07 02:39:29;;;;;;;0.70;0.70;;;12.80;99.90;;;;;;5041608;28;20449;-82
2023/08/07 02:41:55;;;;;;;0.50;0.40;;;12.80;99.90;;;;;;5043794;28;20846;-82
2023/08/07 02:44:22;;;;;;;1.30;1.20;;;12.90;99.90;;;;;;5043329;28;20446;-81
2023/08/07 02:46:50;;;;;;;1.47;0.73;;;12.80;99.90;;;;;;5047882;28;20562;-81
2023/08/07 02:49:17;;;;;;;0.77;0.77;;;12.80;99.90;;;;;;5045964;28;20446;-81
2023/08/07 02:51:44;;;;;;;0.50;0.40;;;12.80;99.90;;;;;;5032889;28;20436;-82
2023/08/07 02:54:10;;;;;;;0.50;0.50;;;12.80;99.90;;;;;;5040356;28;20959;-81
2023/08/07 02:56:37;;;;;;;4.40;1.37;;;12.80;99.90;;;;;;5042296;28;20999;-81
2023/08/07 02:59:05;;;;;;;0.50;0.40;;;12.80;99.90;;;;;;5043593;28;20984;-82
2023/08/07 03:01:32;;;;;;;1.80;1.23;;;12.80;99.90;;;;;;5041408;28;20509;-82
2023/08/07 03:04:00;;;;;;;0.50;0.40;;;12.80;99.90;;;;;;5040570;28;20448;-82
2023/08/07 03:06:26;;;;;;;0.50;0.50;;;12.80;99.90;;;;;;5040548;28;20833;-83
2023/08/07 03:08:53;;;;;;;0.50;0.50;;;12.80;99.90;;;;;;5046771;28;20440;-83
2023/08/07 03:11:20;;;;;;;0.50;0.40;;;12.80;99.90;;;;;;5039576;28;20445;-83
2023/08/07 03:13:48;;;;;;;2.17;2.07;;;12.80;99.90;;;;;;5044182;28;20444;-82
2023/08/07 03:16:15;;;;;;;1.73;0.90;;;12.80;99.90;;;;;;5042930;28;20894;-83
2023/08/07 03:18:42;;;;;;;0.50;0.40;;;12.80;99.90;;;;;;5040003;28;20483;-82
2023/08/07 03:21:10;;;;;;;0.50;0.37;;;12.70;99.90;;;;;;5040032;28;20454;-83
2023/08/07 03:23:37;;;;;;;0.50;0.40;;;12.80;99.90;;;;;;5042124;28;21134;-83
2023/08/07 03:26:05;;;;;;;2.83;2.63;;;12.80;99.90;;;;;;5045916;28;20473;-83
2023/08/07 03:28:32;;;;;;;3.77;3.43;;;12.70;99.90;;;;;;5047755;28;20436;-82
2023/08/07 03:30:59;;;;;;;0.50;0.40;;;12.70;99.90;;;;;;5044007;28;20450;-81
2023/08/07 03:33:26;;;;;;;2.30;0.83;;;12.70;99.90;;;;;;5043751;28;20959;-82
2023/08/07 03:35:53;;;;;;;0.50;0.40;;;12.70;99.90;;;;;;5043355;28;20559;-82
2023/08/07 03:38:21;;;;;;;0.97;0.87;;;12.70;99.90;;;;;;5043986;28;20574;-82
2023/08/07 03:40:48;;;;;;;0.80;0.80;;;12.70;99.90;;;;;;5047229;28;20443;-82
2023/08/07 03:43:15;;;;;;;1.77;1.70;;;12.70;99.90;;;;;;5039800;28;20449;-83
2023/08/07 03:45:41;;;;;;;0.50;0.40;;;12.60;99.90;;;;;;5046025;28;20451;-82
2023/08/07 03:48:08;;;;;;;0.50;0.40;;;12.60;99.90;;;;;;5051721;28;20439;-83
2023/08/07 03:50:37;;;;;;;0.50;0.40;;;12.60;99.90;;;;;;5053407;28;20489;-82
2023/08/07 03:53:04;;;;;;;0.50;0.40;;;12.60;99.90;;;;;;5044443;28;20845;-82
2023/08/07 03:55:32;;;;;;;0.50;0.40;;;12.60;99.90;;;;;;5044258;28;20451;-81
2023/08/07 03:57:59;;;;;;;0.50;0.40;;;12.60;99.90;;;;;;5046959;28;20528;-82
2023/08/07 04:00:26;;;;;;;1.17;0.83;;;12.60;99.90;;;;;;5046295;28;20447;-83
2023/08/07 04:02:53;;;;;;;2.27;1.63;;;12.70;99.90;;;;;;5043779;28;20444;-83
2023/08/07 04:05:19;;;;;;;0.80;0.80;;;12.60;99.90;;;;;;5042092;28;20449;-83
2023/08/07 04:07:46;;;;;;;0.90;0.90;;;12.60;99.90;;;;;;5043834;28;20468;-83
2023/08/07 04:10:13;;;;;;;0.50;0.40;;;12.70;99.90;;;;;;5043426;28;20444;-83
2023/08/07 04:12:41;;;;;;;0.50;0.40;;;12.70;99.90;;;;;;5045924;28;20454;-83
2023/08/07 04:15:09;;;;;;;1.37;1.27;;;12.70;99.90;;;;;;5046208;28;20451;-83
2023/08/07 04:17:37;;;;;;;0.50;0.40;;;12.70;99.90;;;;;;5038149;28;20484;-82
2023/08/07 04:20:05;;;;;;;0.50;0.40;;;12.70;99.90;;;;;;5046677;28;20474;-83
2023/08/07 04:22:31;;;;;;;0.50;0.50;;;12.60;99.90;;;;;;5036970;28;20459;-82
2023/08/07 04:24:59;;;;;;;0.50;0.40;;;12.60;99.90;;;;;;5046568;28;20931;-83
2023/08/07 04:27:26;;;;;;;0.60;0.53;;;12.70;99.90;;;;;;5047771;28;20508;-82
2023/08/07 04:29:54;;;;;;;1.97;0.73;;;12.70;99.90;;;;;;5040435;28;20447;-83
2023/08/07 04:32:21;;;;;;;0.67;0.50;;;12.70;99.90;;;;;;5046847;28;20449;-82
2023/08/07 04:34:48;;;;;;;0.50;0.40;;;12.70;99.90;;;;;;5039636;28;20460;-82
2023/08/07 04:37:15;;;;;;;0.50;0.40;;;12.70;99.90;;;;;;5047628;28;20471;-82
2023/08/07 04:39:42;;;;;;;0.50;0.40;;;12.70;99.90;;;;;;5044631;28;20530;-83
2023/08/07 04:42:08;;;;;;;0.50;0.40;;;12.70;99.90;;;;;;5041119;28;20438;-82
2023/08/07 04:44:35;;;;;;;0.50;0.40;;;12.70;99.90;;;;;;5046268;28;20824;-82
2023/08/07 04:47:03;;;;;;;0.50;0.40;;;12.70;99.90;;;;;;5045468;28;20458;-82
2023/08/07 04:49:30;;;;;;;0.50;0.40;;;12.60;99.90;;;;;;5037795;28;20436;-82
2023/08/07 04:51:57;;;;;;;2.40;1.33;;;12.70;99.90;;;;;;5047357;28;20804;-82
2023/08/07 04:54:24;;;;;;;1.03;0.93;;;12.70;99.90;;;;;;5046764;28;20809;-84
2023/08/07 04:56:50;;;;;;;0.67;0.67;;;12.70;99.90;;;;;;5042991;28;20464;-83
2023/08/07 04:59:17;;;;;;;0.50;0.40;;;12.70;99.90;;;;;;5042476;28;20575;-82
2023/08/07 05:01:44;;;;;;;1.17;1.17;;;12.70;99.90;;;;;;5044561;28;20440;-82
2023/08/07 05:04:12;;;;;;;0.50;0.50;;;12.60;99.90;;;;;;5045917;28;20435;-82
2023/08/07 05:06:39;;;;;;;0.50;0.40;;;12.70;99.90;;;;;;5044573;28;21006;-82
2023/08/07 05:09:06;;;;;;;0.50;0.50;;;12.60;99.90;;;;;;5042365;28;20926;-82
2023/08/07 05:11:33;;;;;;;0.70;0.70;;;12.70;99.90;;;;;;5051731;28;20477;-82
2023/08/07 05:14:00;;;;;;;0.50;0.40;;;12.70;99.90;;;;;;5047907;28;20886;-82
2023/08/07 05:16:27;;;;;;;1.57;0.70;;;12.70;99.90;;;;;;5045854;28;20470;-81
2023/08/07 05:18:54;;;;;;;0.50;0.40;;;12.60;99.90;;;;;;5042760;28;20848;-82
2023/08/07 05:21:22;;;;;;;0.50;0.40;;;12.60;99.90;;;;;;5043034;28;20444;-81
2023/08/07 05:23:53;;;;;;;0.53;0.50;;;12.70;99.90;;;;;;5044177;28;20447;-82
2023/08/07 05:26:19;;;;;;;0.50;0.40;;;12.60;99.90;;;;;;5046698;28;20468;-82
2023/08/07 05:28:46;;;;;;;0.50;0.40;;;12.60;99.90;;;;;;5044729;28;20436;-83
2023/08/07 05:31:13;;;;;;;1.83;1.73;;;12.60;99.90;;;;;;5045586;28;20452;-80
2023/08/07 05:33:40;;;;;;;1.43;1.33;;;12.60;99.90;;;;;;5045487;28;20440;-82
2023/08/07 05:36:07;;;;;;;1.07;0.50;;;12.60;99.90;;;;;;5046723;28;20462;-82
2023/08/07 05:38:35;;;;;;;1.67;1.57;;;12.60;99.90;;;;;;5045326;28;20484;-81
2023/08/07 05:41:02;;;;;;;0.67;0.60;;;12.60;99.90;;;;;;5046442;28;20443;-83
2023/08/07 05:43:29;;;;;;;0.50;0.40;;;12.70;99.90;;;;;;5046780;28;20444;-83
2023/08/07 05:45:56;;;;;;;1.03;1.03;;;12.70;99.90;;;;;;5047924;28;20470;-82
2023/08/07 05:48:23;;;;;;;0.50;0.40;;;12.70;99.90;;;;;;5046444;28;20435;-82
2023/08/07 05:50:49;;;;;;;1.77;1.67;;;12.60;99.90;;;;;;5045507;28;20435;-82
2023/08/07 05:53:16;;;;;;;0.50;0.40;;;12.60;99.90;;;;;;5044352;28;20508;-83
2023/08/07 05:55:44;;;;;;;0.50;0.40;;;12.60;99.90;;;;;;5043384;28;20455;-82
2023/08/07 05:58:11;;;;;;;1.33;1.03;;;12.60;99.90;;;;;;5048714;28;20479;-82
2023/08/07 06:00:38;;;;;;;0.50;0.50;;;12.60;99.90;;;;;;5044788;28;20542;-82
2023/08/07 06:03:05;;;;;;;0.50;0.40;;;12.60;99.90;;;;;;5044724;28;20526;-82
2023/08/07 06:05:32;;;;;;;0.50;0.40;;;12.60;99.90;;;;;;5044466;28;20450;-81
2023/08/07 06:07:59;;;;;;;0.60;0.60;;;12.60;99.90;;;;;;5048869;28;21079;-81
2023/08/07 06:10:27;;;;;;;0.83;0.80;;;12.60;99.90;;;;;;5039580;28;20440;-81
2023/08/07 06:12:55;;;;;;;0.50;0.40;;;12.60;99.90;;;;;;5042577;28;20457;-81
2023/08/07 06:15:22;;;;;;;0.50;0.50;;;12.60;99.90;;;;;;5041368;28;20959;-82
2023/08/07 06:17:51;;;;;;;2.83;1.93;;;12.70;99.90;;;;;;5042338;28;20861;-82
2023/08/07 06:20:17;;;;;;;1.90;1.80;;;12.70;99.90;;;;;;5044978;28;20868;-81
2023/08/07 06:22:44;;;;;;;0.60;0.60;;;12.70;99.90;;;;;;5033000;28;20481;-83
2023/08/07 06:25:11;;;;;;;0.70;0.70;;;12.70;99.90;;;;;;5044860;28;20467;-82
2023/08/07 06:27:38;;;;;;;0.70;0.70;;;12.80;99.90;;;;;;5040672;28;20468;-82
2023/08/07 06:30:07;;;;;;;1.37;1.27;;;12.80;99.90;;;;;;5047298;28;20534;-82
2023/08/07 06:32:34;;;;;;;0.50;0.40;;;12.80;99.90;;;;;;5044840;28;20451;-81
2023/08/07 06:35:01;;;;;;;0.60;0.60;;;12.90;99.90;;;;;;5041452;28;20476;-82
2023/08/07 06:37:28;;;;;;;2.00;1.90;;;12.90;99.90;;;;;;5040688;28;20542;-82
2023/08/07 06:39:55;;;;;;;0.50;0.40;;;13.00;99.90;;;;;;5044959;28;20475;-83
2023/08/07 06:42:22;;;;;;;1.87;1.77;;;13.00;99.90;;;;;;5044476;28;20449;-82
2023/08/07 06:44:48;;;;;;;0.50;0.40;;;12.90;99.90;;;;;;5037788;28;20447;-82
2023/08/07 06:47:16;;;;;;;0.50;0.40;;;13.00;99.90;;;;;;5047478;28;20538;-81
2023/08/07 06:49:43;;;;;;;0.50;0.40;;;13.00;99.90;;;;;;5045435;28;20455;-82
2023/08/07 06:52:10;;;;;;;0.50;0.40;;;13.00;99.90;;;;;;5044204;28;20896;-82
2023/08/07 06:54:37;;;;;;;0.73;0.73;;;13.00;99.90;;;;;;5044167;28;20466;-82
2023/08/07 06:57:05;;;;;;;2.57;1.53;;;13.10;99.90;;;;;;5050017;28;20868;-81
2023/08/07 06:59:32;;;;;;;0.50;0.40;;;13.00;99.90;;;;;;5043279;28;20988;-82
2023/08/07 07:01:59;;;;;;;0.50;0.40;;;13.00;99.90;;;;;;5043911;28;20828;-81
2023/08/07 07:04:27;;;;;;;1.37;1.07;;;13.00;99.90;;;;;;5045943;28;20941;-81
2023/08/07 07:06:54;;;;;;;1.70;1.23;;;13.10;99.90;;;;;;5041554;28;20475;-82
2023/08/07 07:09:21;;;;;;;3.00;2.10;;;13.10;99.90;;;;;;5049249;28;20432;-84
2023/08/07 07:11:48;;;;;;;0.50;0.40;;;13.10;99.90;;;;;;5049919;28;20449;-84
2023/08/07 07:14:14;;;;;;;1.13;1.03;;;13.10;99.90;;;;;;5033731;28;20443;-83
2023/08/07 07:16:42;;;;;;;0.50;0.50;;;13.10;99.90;;;;;;5041155;28;20472;-82
2023/08/07 07:19:09;;;;;;;1.17;1.10;;;13.20;99.90;;;;;;5041831;28;20476;-82
2023/08/07 07:21:37;;;;;;;0.50;0.40;;;13.30;99.90;;;;;;5041134;28;20450;-81
2023/08/07 07:24:04;;;;;;;0.50;0.30;;;13.30;99.90;;;;;;5044135;28;20445;-82
2023/08/07 07:26:31;;;;;;;0.50;0.40;;;13.30;99.90;;;;;;5045301;28;20497;-82
2023/08/07 07:28:58;;;;;;;0.50;0.40;;;13.30;99.90;;;;;;5047395;28;20450;-81
2023/08/07 07:31:25;;;;;;;0.50;0.50;;;13.30;99.90;;;;;;5047196;28;20455;-83
2023/08/07 07:33:52;;;;;;;0.50;0.40;;;13.30;99.90;;;;;;5042390;28;20543;-80
2023/08/07 07:36:20;;;;;;;0.50;0.40;;;13.30;99.90;;;;;;5037465;28;20490;-81
2023/08/07 07:38:48;;;;;;;0.50;0.40;;;13.30;99.90;;;;;;5040747;28;20478;-83
2023/08/07 07:41:15;;;;;;;0.50;0.40;;;13.30;99.90;;;;;;5042050;28;20822;-82
2023/08/07 07:43:42;;;;;;;0.50;0.40;;;13.30;99.90;;;;;;5048740;28;20453;-82
2023/08/07 07:46:09;;;;;;;0.50;0.40;;;13.40;99.90;;;;;;5040448;28;20464;-82
2023/08/07 07:48:36;;;;;;;0.77;0.77;;;13.40;99.90;;;;;;5040581;28;20498;-80
2023/08/07 07:51:03;;;;;;;0.50;0.40;;;13.40;99.90;;;;;;5040478;28;20975;-83
2023/08/07 07:53:30;;;;;;;0.50;0.40;;;13.40;99.90;;;;;;5040708;28;20452;-82
2023/08/07 07:55:59;;;;;;;0.87;0.67;;;13.40;99.90;;;;;;5042121;28;20465;-82
2023/08/07 07:58:25;;;;;;;0.60;0.40;;;13.40;99.90;;;;;;5044089;28;20930;-82
2023/08/07 08:00:54;;;;;;;0.50;0.40;;;13.40;99.90;;;;;;5041715;28;20450;-82
2023/08/07 08:03:21;;;;;;;0.70;0.70;;;13.40;99.90;;;;;;5040175;28;20444;-83
2023/08/07 08:05:50;;;;;;;1.27;1.17;;;13.50;99.90;;;;;;5039484;28;20440;-81
2023/08/07 08:08:17;;;;;;;1.13;1.03;;;13.60;99.90;;;;;;5043539;28;20994;-82
2023/08/07 08:10:44;;;;;;;0.50;0.40;;;13.60;99.90;;;;;;5036605;28;20945;-82
2023/08/07 08:13:12;;;;;;;0.50;0.50;;;13.60;99.90;;;;;;5045363;28;20438;-81
2023/08/07 08:15:39;;;;;;;0.60;0.60;;;13.60;99.90;;;;;;5049759;28;20535;-82
2023/08/07 08:18:06;;;;;;;1.00;0.90;;;13.70;99.90;;;;;;5056913;28;20446;-83
2023/08/07 08:20:33;;;;;;;0.50;0.40;;;13.70;99.90;;;;;;5050105;28;20473;-82
2023/08/07 08:23:00;;;;;;;0.70;0.70;;;13.80;99.90;;;;;;5045112;28;20448;-83
2023/08/07 08:25:27;;;;;;;0.50;0.50;;;13.90;99.90;;;;;;5046257;28;20451;-82
2023/08/07 08:27:53;;;;;;;0.60;0.60;;;14.00;99.90;;;;;;5045974;28;20841;-82
2023/08/07 08:30:22;;;;;;;0.50;0.43;;;14.00;99.90;;;;;;5043426;28;20440;-82
2023/08/07 08:32:49;;;;;;;0.50;0.40;;;14.00;99.90;;;;;;5043857;28;20483;-83
2023/08/07 08:35:15;;;;;;;0.50;0.40;;;14.10;99.90;;;;;;5034757;28;20453;-83
2023/08/07 08:37:42;;;;;;;0.50;0.40;;;14.20;99.90;;;;;;5042776;28;20455;-82
2023/08/07 08:40:11;;;;;;;0.50;0.40;;;14.30;99.90;;;;;;5041933;28;20475;-83
2023/08/07 08:42:40;;;;;;;0.50;0.40;;;14.50;99.90;;;;;;5042336;28;20444;-82
2023/08/07 08:45:11;;;;;;;1.53;1.43;;;14.60;99.90;;;;;;5042590;28;20447;-82
2023/08/07 08:47:40;;;;;;;0.80;0.80;;;14.60;99.90;;;;;;5042728;28;20510;-80
2023/08/07 08:50:11;;;;;;;0.83;0.83;;;14.70;99.90;;;;;;5044901;28;20940;-82
2023/08/07 08:52:39;;;;;;;0.50;0.40;;;14.60;99.90;;;;;;5046885;28;20522;-80
2023/08/07 08:55:07;;;;;;;0.50;0.40;;;14.60;99.90;;;;;;5045422;28;20435;-82
2023/08/07 08:57:35;;;;;;;0.70;0.67;;;14.60;99.90;;;;;;5041582;28;20510;-82
2023/08/07 09:00:04;;;;;;;0.50;0.40;;;14.70;99.90;;;;;;5053341;28;20476;-83
2023/08/07 09:02:32;;;;;;;1.13;0.90;;;14.80;99.90;;;;;;5049300;28;20456;-82
2023/08/07 09:05:00;;;;;;;0.50;0.40;;;15.00;99.90;;;;;;5048957;28;20458;-82
2023/08/07 09:07:28;;;;;;;0.50;0.40;;;15.30;99.90;;;;;;5054091;28;20490;-83
2023/08/07 09:09:57;;;;;;;0.50;0.30;;;15.60;99.90;;;;;;5045679;28;20444;-83
2023/08/07 09:12:27;;;;;;;1.43;1.30;;;15.70;99.90;;;;;;5045682;28;20453;-81
2023/08/07 09:14:58;;;;;;;1.17;1.17;;;15.80;99.90;;;;;;5044492;28;20440;-81
2023/08/07 09:17:27;;;;;;;0.50;0.40;;;15.70;99.90;;;;;;5042418;28;20844;-82
2023/08/07 09:19:54;;;;;;;0.70;0.50;;;15.80;99.90;;;;;;5041568;28;20487;-81
2023/08/07 09:22:22;;;;;;;0.50;0.30;;;16.20;99.90;;;;;;5045862;28;20448;-81
2023/08/07 09:24:50;;;;;;;0.50;0.40;;;16.80;99.90;;;;;;5044696;28;20440;-80
2023/08/07 09:27:17;;;;;;;0.50;0.40;;;17.30;99.90;;;;;;5045330;28;20463;-80
2023/08/07 09:29:45;;;;;;;0.50;0.40;;;17.70;99.90;;;;;;5044922;28;20441;-80
2023/08/07 09:32:14;;;;;;;0.60;0.50;;;17.70;99.90;;;;;;5043705;28;20444;-81
2023/08/07 09:34:41;;;;;;;7.60;0.77;;;17.70;99.90;;;;;;5041479;28;20444;-80
2023/08/07 09:37:08;;;;;;;0.50;0.40;;;17.40;99.90;;;;;;5042919;28;20547;-82
2023/08/07 09:39:36;;;;;;;0.70;0.63;;;17.00;99.90;;;;;;5044994;28;20475;-82
2023/08/07 09:42:04;;;;;;;0.70;0.70;;;16.50;99.90;;;;;;5044741;28;20446;-82
2023/08/07 09:44:37;;;;;;;18.30;2.67;;;16.00;99.90;;;;;;5044973;28;20440;-82
2023/08/07 09:47:12;;;;;;;0.50;0.50;;;15.50;99.90;;;;;;5043232;28;20467;-81
2023/08/07 09:49:39;;;;;;;0.50;0.40;;;15.30;99.90;;;;;;5041444;28;20435;-81
2023/08/07 09:52:08;;;;;;;0.50;0.40;;;15.20;99.90;;;;;;5044347;28;20443;-82
2023/08/07 09:54:37;;;;;;;0.50;0.40;;;15.10;99.90;;;;;;5040979;28;20439;-82
2023/08/07 09:57:04;;;;;;;0.50;0.30;;;15.00;99.90;;;;;;5033742;28;20837;-82
2023/08/07 09:59:32;;;;;;;0.50;0.40;;;15.10;99.90;;;;;;5045465;28;20911;-83
2023/08/07 10:02:01;;;;;;;0.50;0.40;;;15.20;99.90;;;;;;5044192;28;20440;-82
2023/08/07 10:04:27;;;;;;;1.57;0.80;;;15.50;99.90;;;;;;5040913;28;20951;-82
2023/08/07 10:06:54;;;;;;;0.50;0.40;;;15.70;99.90;;;;;;5040487;28;20985;-82
2023/08/07 10:09:22;;;;;;;0.60;0.40;;;15.90;99.90;;;;;;5039753;28;20914;-82
2023/08/07 10:11:51;;;;;;;0.50;0.50;;;16.40;99.90;;;;;;5041205;28;20450;-82
2023/08/07 10:14:18;;;;;;;1.40;1.20;;;16.50;99.90;;;;;;5043908;28;20443;-82
2023/08/07 10:16:46;;;;;;;0.50;0.40;;;16.50;99.90;;;;;;5043661;28;20471;-83
2023/08/07 10:19:13;;;;;;;0.50;0.50;;;16.50;99.90;;;;;;5042247;28;20440;-80
2023/08/07 10:21:41;;;;;;;0.50;0.40;;;16.60;99.90;;;;;;5040260;28;20474;-80
2023/08/07 10:24:09;;;;;;;1.00;0.90;;;16.90;99.90;;;;;;5048153;28;21002;-80
2023/08/07 10:26:40;;;;;;;0.50;0.40;;;17.00;99.90;;;;;;5043855;28;20465;-78
2023/08/07 10:29:14;;;;;;;0.50;0.40;;;17.30;99.90;;;;;;5043216;28;20441;-81
2023/08/07 10:31:42;;;;;;;1.03;0.47;;;17.70;99.90;;;;;;5044967;28;20448;-81
2023/08/07 10:34:09;;;;;;;0.50;0.30;;;18.00;99.90;;;;;;5042077;28;20821;-80
2023/08/07 10:36:38;;;;;;;0.60;0.50;;;18.00;99.90;;;;;;5040421;28;20457;-78
2023/08/07 10:39:09;;;;;;;0.50;0.30;;;17.70;99.90;;;;;;5040274;28;20444;-80
2023/08/07 10:41:41;;;;;;;0.83;0.83;;;17.20;99.90;;;;;;5040418;28;20448;-80
2023/08/07 10:44:20;;;;;;;0.50;0.40;;;16.80;99.90;;;;;;5040929;28;20494;-80
2023/08/07 10:46:52;;;;;;;0.50;0.40;;;16.30;99.90;;;;;;5043137;28;20959;-80
2023/08/07 10:49:32;;;;;;;0.60;0.50;;;16.00;99.90;;;;;;5040938;28;20519;-81
2023/08/07 10:51:59;;;;;;;0.50;0.40;;;15.70;99.90;;;;;;5039935;28;20467;-80
2023/08/07 10:54:27;;;;;;;0.50;0.40;;;15.50;99.90;;;;;;5042856;28;20432;-80
2023/08/07 10:56:55;;;;;;;0.50;0.40;;;15.20;99.90;;;;;;5042792;28;20460;-82
2023/08/07 10:59:23;;;;;;;0.50;0.40;;;15.20;99.90;;;;;;5040055;28;20440;-80
2023/08/07 11:01:56;;;;;;;0.50;0.40;;;15.50;99.90;;;;;;5046168;28;20440;-80
2023/08/07 11:04:25;;;;;;;0.60;0.57;;;16.20;99.90;;;;;;5040788;28;20448;-80
2023/08/07 11:06:52;;;;;;;0.50;0.40;;;17.00;99.90;;;;;;5040795;28;21051;-79
2023/08/07 11:09:19;;;;;;;0.50;0.40;;;17.60;99.90;;;;;;5042847;28;20449;-80
2023/08/07 11:11:48;;;;;;;0.50;0.30;;;18.00;99.90;;;;;;5045030;28;20476;-81
2023/08/07 11:14:16;;;;;;;0.50;0.40;;;18.90;99.90;;;;;;5042599;28;20444;-81
2023/08/07 11:16:46;;;;;;;0.50;0.40;;;20.10;99.90;;;;;;5037532;28;20463;-81
2023/08/07 11:19:14;;;;;;;0.50;0.30;;;21.40;99.90;;;;;;5043166;28;20787;-81
2023/08/07 11:21:42;;;;;;;0.50;0.40;;;22.50;99.90;;;;;;5039979;28;20437;-82
2023/08/07 11:24:09;;;;;;;1.37;0.83;;;23.50;99.90;;;;;;5040891;28;20440;-81
2023/08/07 11:26:36;;;;;;;0.50;0.40;;;24.10;99.90;;;;;;5042933;28;20463;-80
2023/08/07 11:29:02;;;;;;;0.50;0.30;;;24.20;99.90;;;;;;5043149;28;20530;-81
2023/08/07 11:31:29;;;;;;;1.27;1.17;;;24.00;99.90;;;;;;5039442;28;20445;-80
2023/08/07 11:33:59;;;;;;;0.50;0.33;;;23.10;99.90;;;;;;5039887;28;20436;-81
2023/08/07 11:36:26;;;;;;;0.50;0.37;;;22.20;99.90;;;;;;5042207;28;20514;-80
2023/08/07 11:38:52;;;;;;;0.50;0.33;;;21.10;99.90;;;;;;5045413;28;20437;-81
2023/08/07 11:41:20;;;;;;;0.50;0.30;;;20.40;99.90;;;;;;5039554;28;20487;-81
2023/08/07 11:43:47;;;;;;;0.50;0.40;;;19.60;99.90;;;;;;5039410;28;20436;-78
2023/08/07 11:46:15;;;;;;;1.57;0.90;;;19.30;99.90;;;;;;5039638;28;20465;-81
2023/08/07 11:48:43;;;;;;;0.50;0.50;;;19.90;99.90;;;;;;5046272;28;20810;-81
2023/08/07 11:51:11;;;;;;;0.50;0.30;;;19.90;99.90;;;;;;5046528;28;20440;-81
2023/08/07 11:53:41;;;;;;;0.50;0.40;;;20.60;99.90;;;;;;5043484;28;20453;-81
2023/08/07 11:56:10;;;;;;;0.50;0.30;;;21.70;99.90;;;;;;5043131;28;20485;-81
2023/08/07 11:58:38;;;;;;;0.50;0.40;;;22.80;99.90;;;;;;5035257;28;20449;-81
2023/08/07 12:01:06;;;;;;;0.50;0.40;;;23.60;99.90;;;;;;5042646;28;20479;-82
2023/08/07 12:03:38;;;;;;;0.50;0.40;;;24.10;99.90;;;;;;5046064;28;20462;-81
2023/08/07 12:06:06;;;;;;;1.63;1.23;;;24.40;99.90;;;;;;5046103;28;20562;-81
2023/08/07 12:08:37;;;;;;;0.50;0.40;;;24.50;99.90;;;;;;5042720;28;20827;-80
2023/08/07 12:11:05;;;;;;;1.27;0.70;;;24.40;99.90;;;;;;5042701;28;20531;-80
2023/08/07 12:13:34;;;;;;;0.50;0.30;;;24.00;99.90;;;;;;5045351;28;20497;-81
2023/08/07 12:16:02;;;;;;;2.10;0.50;;;23.70;99.90;;;;;;5045473;28;20466;-79
2023/08/07 12:18:30;;;;;;;0.50;0.40;;;23.30;99.90;;;;;;5043605;28;20448;-80
2023/08/07 12:21:00;;;;;;;0.50;0.40;;;23.10;99.90;;;;;;5043147;28;20507;-80
2023/08/07 12:23:28;;;;;;;0.50;0.40;;;23.40;99.90;;;;;;5044857;28;20449;-80
2023/08/07 12:25:56;;;;;;;0.60;0.40;;;23.70;99.90;;;;;;5045158;28;20449;-81
2023/08/07 12:28:23;;;;;;;0.50;0.30;;;24.10;99.90;;;;;;5046409;28;20446;-80
2023/08/07 12:30:52;;;;;;;0.50;0.40;;;24.10;99.90;;;;;;5040372;28;20451;-80
2023/08/07 12:33:19;;;;;;;0.70;0.40;;;23.30;99.90;;;;;;5043054;28;20436;-80
2023/08/07 12:35:45;;;;;;;0.50;0.40;;;22.50;99.90;;;;;;5045406;28;20443;-80
2023/08/07 12:38:14;;;;;;;0.50;0.40;;;22.00;99.90;;;;;;5045980;28;20447;-79
2023/08/07 12:40:42;;;;;;;0.50;0.40;;;21.60;99.90;;;;;;5043456;28;20487;-80
2023/08/07 12:43:10;;;;;;;0.50;0.30;;;21.80;99.90;;;;;;5042548;28;20885;-79
2023/08/07 12:45:36;;;;;;;0.50;0.40;;;21.50;99.90;;;;;;5046362;28;20466;-79
2023/08/07 12:48:04;;;;;;;0.50;0.40;;;21.30;99.90;;;;;;5046116;28;20527;-79
2023/08/07 12:50:30;;;;;;;0.60;0.60;;;21.00;99.90;;;;;;5044050;28;20446;-79